createdAt,value
2023-07-27T00:00:28.953Z,98448.28
2023-07-27T00:02:56.570Z,98446.88
2023-07-27T00:05:24.342Z,98446.25
2023-07-27T00:07:51.933Z,98441.97
2023-07-27T00:10:21.314Z,98449.22
2023-07-27T00:12:48.970Z,98445.06
2023-07-27T00:15:16.564Z,98449.94
2023-07-27T00:17:44.215Z,98447.56
2023-07-27T00:20:12.479Z,98449.28
2023-07-27T00:22:40.120Z,98448.47
2023-07-27T00:25:08.148Z,98452.47
2023-07-27T00:27:35.679Z,98464.81
2023-07-27T00:30:03.479Z,98461.72
2023-07-27T00:32:31.146Z,98462.81
2023-07-27T00:34:58.683Z,98453.69
2023-07-27T00:37:27.456Z,98449.13
2023-07-27T00:39:54.958Z,98452.59
2023-07-27T00:42:22.906Z,98451.91
2023-07-27T00:44:50.544Z,98451.72
2023-07-27T00:47:19.011Z,98451.47
2023-07-27T00:49:46.520Z,98460.16
2023-07-27T00:52:14.314Z,98460.34
2023-07-27T00:54:42.046Z,98457.97
2023-07-27T00:57:09.706Z,98459.81
2023-07-27T00:59:37.461Z,98471.03
2023-07-27T01:02:06.070Z,98463.00
2023-07-27T01:04:33.603Z,98468.88
2023-07-27T01:07:01.215Z,98463.50
2023-07-27T01:09:29.280Z,98459.75
2023-07-27T01:11:56.745Z,98461.41
2023-07-27T01:14:31.003Z,98468.75
2023-07-27T01:17:34.066Z,98472.78
2023-07-27T01:20:44.250Z,98473.78
2023-07-27T01:23:59.079Z,98484.91
2023-07-27T01:27:09.530Z,98473.97
2023-07-27T01:29:57.628Z,98465.34
2023-07-27T01:32:30.204Z,98469.13
2023-07-27T01:35:02.112Z,98467.34
2023-07-27T01:37:31.945Z,98467.47
2023-07-27T01:40:02.614Z,98473.38
2023-07-27T01:42:32.732Z,98477.19
2023-07-27T01:45:01.134Z,98473.31
2023-07-27T01:47:30.152Z,98467.44
2023-07-27T01:49:59.426Z,98471.78
2023-07-27T01:52:28.567Z,98472.81
2023-07-27T01:54:58.989Z,98475.22
2023-07-27T01:57:26.924Z,98489.28
2023-07-27T01:59:56.022Z,98497.28
2023-07-27T02:02:24.829Z,98498.06
2023-07-27T02:04:54.250Z,98495.56
2023-07-27T02:07:21.945Z,98486.09
2023-07-27T02:09:50.542Z,98490.28
2023-07-27T02:12:28.333Z,98492.28
2023-07-27T02:15:04.261Z,98490.84
2023-07-27T02:17:49.810Z,98495.53
2023-07-27T02:20:18.528Z,98502.81
2023-07-27T02:22:48.143Z,98514.94
2023-07-27T02:25:16.096Z,98510.84
2023-07-27T02:27:45.930Z,98521.81
2023-07-27T02:30:13.864Z,98516.13
2023-07-27T02:32:41.606Z,98521.25
2023-07-27T02:35:09.962Z,98529.78
2023-07-27T02:37:37.959Z,98522.16
2023-07-27T02:40:06.417Z,98531.88
2023-07-27T02:42:34.571Z,98535.81
2023-07-27T02:45:03.106Z,98537.97
2023-07-27T02:47:36.392Z,98538.97
2023-07-27T02:50:04.030Z,98543.72
2023-07-27T02:52:34.356Z,98550.28
2023-07-27T02:55:05.728Z,98563.09
2023-07-27T02:57:33.760Z,98570.78
2023-07-27T03:00:02.087Z,98571.00
2023-07-27T03:02:31.581Z,98577.75
2023-07-27T03:05:01.006Z,98586.88
2023-07-27T03:07:29.697Z,98594.03
2023-07-27T03:09:57.373Z,98596.28
2023-07-27T03:12:24.966Z,98603.72
2023-07-27T03:14:52.659Z,98597.88
2023-07-27T03:17:21.086Z,98610.91
2023-07-27T03:19:48.967Z,98606.06
2023-07-27T03:22:16.521Z,98605.09
2023-07-27T03:24:44.153Z,98611.84
2023-07-27T03:27:12.359Z,98614.03
2023-07-27T03:29:40.133Z,98620.78
2023-07-27T03:32:08.313Z,98604.81
2023-07-27T03:34:35.813Z,98616.88
2023-07-27T03:37:03.401Z,98626.03
2023-07-27T03:39:31.026Z,98626.47
2023-07-27T03:41:58.637Z,98623.66
2023-07-27T03:44:29.117Z,98622.78
2023-07-27T03:46:56.870Z,98619.34
2023-07-27T03:49:24.433Z,98624.31
2023-07-27T03:51:52.282Z,98636.44
2023-07-27T03:54:20.006Z,98642.66
2023-07-27T03:56:47.637Z,98641.13
2023-07-27T03:59:15.247Z,98659.91
2023-07-27T04:01:42.828Z,98657.13
2023-07-27T04:04:10.425Z,98660.69
2023-07-27T04:06:38.017Z,98655.34
2023-07-27T04:09:05.581Z,98661.31
2023-07-27T04:11:36.232Z,98674.03
2023-07-27T04:14:04.289Z,98669.59
2023-07-27T04:16:32.543Z,98672.50
2023-07-27T04:19:00.641Z,98676.16
2023-07-27T04:21:28.242Z,98683.03
2023-07-27T04:23:56.225Z,98684.84
2023-07-27T04:26:23.890Z,98684.97
2023-07-27T04:28:51.391Z,98689.22
2023-07-27T04:31:18.990Z,98694.56
2023-07-27T04:33:46.637Z,98695.13
2023-07-27T04:36:14.327Z,98694.84
2023-07-27T04:38:41.874Z,98697.16
2023-07-27T04:41:09.470Z,98692.94
2023-07-27T04:43:36.945Z,98704.78
2023-07-27T04:46:04.669Z,98720.25
2023-07-27T04:48:32.729Z,98714.06
2023-07-27T04:51:00.430Z,98705.50
2023-07-27T04:53:28.164Z,98716.06
2023-07-27T04:55:55.734Z,98705.59
2023-07-27T04:58:23.220Z,98714.50
2023-07-27T05:00:58.993Z,98714.88
2023-07-27T05:03:26.462Z,98719.31
2023-07-27T05:05:54.696Z,98716.41
2023-07-27T05:08:22.234Z,98716.31
2023-07-27T05:10:49.811Z,98729.44
2023-07-27T05:13:17.437Z,98730.47
2023-07-27T05:15:46.105Z,98734.03
2023-07-27T05:18:15.726Z,98740.97
2023-07-27T05:20:45.094Z,98740.19
2023-07-27T05:23:12.733Z,98748.09
2023-07-27T05:25:40.311Z,98735.03
2023-07-27T05:28:07.900Z,98733.81
2023-07-27T05:30:35.453Z,98741.63
2023-07-27T05:33:03.072Z,98753.84
2023-07-27T05:35:31.092Z,98746.16
2023-07-27T05:37:58.623Z,98752.59
2023-07-27T05:40:26.263Z,98760.50
2023-07-27T05:42:53.908Z,98761.00
2023-07-27T05:45:21.570Z,98763.38
2023-07-27T05:47:49.129Z,98767.53
2023-07-27T05:50:17.531Z,98766.94
2023-07-27T05:52:45.063Z,98775.63
2023-07-27T05:55:12.809Z,98770.22
2023-07-27T05:57:43.180Z,98780.22
2023-07-27T06:00:11.402Z,98787.34
2023-07-27T06:02:39.053Z,98798.47
2023-07-27T06:05:07.395Z,98792.44
2023-07-27T06:07:35.049Z,98789.00
2023-07-27T06:10:02.667Z,98805.03
2023-07-27T06:12:30.309Z,98791.88
2023-07-27T06:14:58.352Z,98784.88
2023-07-27T06:17:28.593Z,98785.84
2023-07-27T06:19:56.317Z,98787.81
2023-07-27T06:22:23.872Z,98788.28
2023-07-27T06:24:51.490Z,98804.25
2023-07-27T06:27:19.224Z,98801.06
2023-07-27T06:29:47.315Z,98815.00
2023-07-27T06:32:15.411Z,98816.16
2023-07-27T06:34:43.146Z,98810.69
2023-07-27T06:37:11.090Z,98808.81
2023-07-27T06:39:39.479Z,98804.47
2023-07-27T06:42:07.587Z,98804.75
2023-07-27T06:44:35.833Z,98801.78
2023-07-27T06:47:05.288Z,98808.47
2023-07-27T06:49:34.823Z,98804.22
2023-07-27T06:52:02.689Z,98806.03
2023-07-27T06:54:30.444Z,98810.16
2023-07-27T06:56:58.490Z,98796.00
2023-07-27T06:59:27.993Z,98796.53
2023-07-27T07:01:58.663Z,98794.41
2023-07-27T07:04:26.204Z,98797.91
2023-07-27T07:06:53.913Z,98781.66
2023-07-27T07:09:22.878Z,98788.53
2023-07-27T07:11:50.501Z,98774.09
2023-07-27T07:14:18.339Z,98776.50
2023-07-27T07:16:46.239Z,98783.66
2023-07-27T07:19:14.304Z,98779.25
2023-07-27T07:21:41.872Z,98790.06
2023-07-27T07:24:09.792Z,98778.66
2023-07-27T07:26:38.208Z,98777.63
2023-07-27T07:29:06.899Z,98785.41
2023-07-27T07:31:34.664Z,98779.38
2023-07-27T07:34:02.227Z,98775.22
2023-07-27T07:36:29.947Z,98788.78
2023-07-27T07:38:57.523Z,98768.47
2023-07-27T07:41:25.564Z,98779.06
2023-07-27T07:43:53.111Z,98761.94
2023-07-27T07:46:22.814Z,98778.50
2023-07-27T07:48:50.592Z,98763.84
2023-07-27T07:51:18.718Z,98752.50
2023-07-27T07:53:47.993Z,98770.94
2023-07-27T07:56:18.070Z,98773.72
2023-07-27T07:58:46.294Z,98772.09
2023-07-27T08:01:14.646Z,98782.78
2023-07-27T08:03:42.873Z,98782.41
2023-07-27T08:06:13.656Z,98797.97
2023-07-27T08:08:41.177Z,98797.09
2023-07-27T08:11:13.313Z,98786.59
2023-07-27T08:13:41.200Z,98782.41
2023-07-27T08:16:08.963Z,98790.28
2023-07-27T08:18:36.578Z,98802.72
2023-07-27T08:21:07.108Z,98808.13
2023-07-27T08:23:35.035Z,98817.59
2023-07-27T08:26:04.656Z,98828.38
2023-07-27T08:28:33.250Z,98818.09
2023-07-27T08:31:04.574Z,98827.25
2023-07-27T08:33:33.448Z,98842.63
2023-07-27T08:36:04.069Z,98847.81
2023-07-27T08:38:32.664Z,98833.28
2023-07-27T08:41:02.720Z,98843.59
2023-07-27T08:43:30.883Z,98841.94
2023-07-27T08:45:59.990Z,98826.09
2023-07-27T08:48:29.895Z,98824.63
2023-07-27T08:51:00.782Z,98820.75
2023-07-27T08:53:28.659Z,98836.38
2023-07-27T08:55:56.690Z,98833.16
2023-07-27T08:58:24.301Z,98853.94
2023-07-27T09:00:51.909Z,98854.97
2023-07-27T09:03:20.034Z,98853.06
2023-07-27T09:06:00.599Z,98859.63
2023-07-27T09:08:30.419Z,98868.34
2023-07-27T09:11:13.491Z,98878.16
2023-07-27T09:13:42.170Z,98874.44
2023-07-27T09:16:11.093Z,98870.06
2023-07-27T09:18:41.491Z,98869.66
2023-07-27T09:21:11.033Z,98861.59
2023-07-27T09:23:40.391Z,98858.56
2023-07-27T09:26:08.166Z,98844.63
2023-07-27T09:28:36.205Z,98856.19
2023-07-27T09:31:06.286Z,98865.53
2023-07-27T09:33:34.407Z,98879.94
2023-07-27T09:36:04.991Z,98883.84
2023-07-27T09:38:32.978Z,98888.72
2023-07-27T09:41:08.681Z,98913.38
2023-07-27T09:43:42.227Z,98910.50
2023-07-27T09:46:10.630Z,98903.75
2023-07-27T09:48:39.413Z,98902.84
2023-07-27T09:51:09.959Z,98897.81
2023-07-27T09:53:38.654Z,98903.22
2023-07-27T09:56:07.747Z,98896.28
2023-07-27T09:58:41.171Z,98910.09
2023-07-27T10:01:10.233Z,98892.81
2023-07-27T10:03:38.181Z,98904.56
2023-07-27T10:06:08.196Z,98898.97
2023-07-27T10:08:36.322Z,98905.78
2023-07-27T10:11:03.850Z,98895.72
2023-07-27T10:13:31.416Z,98892.66
2023-07-27T10:16:02.847Z,98876.72
2023-07-27T10:18:33.115Z,98879.75
2023-07-27T10:21:31.848Z,98875.97
2023-07-27T10:24:05.564Z,98892.75
2023-07-27T10:26:45.667Z,98878.03
2023-07-27T10:29:19.775Z,98883.56
2023-07-27T10:32:04.349Z,98893.25
2023-07-27T10:34:41.264Z,98865.63
2023-07-27T10:37:15.711Z,98855.38
2023-07-27T10:39:52.499Z,98852.13
2023-07-27T10:42:24.374Z,98834.53
2023-07-27T10:44:57.245Z,98833.41
2023-07-27T10:47:39.620Z,98832.69
2023-07-27T10:50:08.386Z,98832.56
2023-07-27T10:52:38.657Z,98831.22
2023-07-27T10:55:08.518Z,98835.13
2023-07-27T10:57:37.024Z,98827.75
2023-07-27T11:00:06.616Z,98828.94
2023-07-27T11:02:37.160Z,98831.19
2023-07-27T11:05:07.852Z,98824.31
2023-07-27T11:07:40.682Z,98818.69
2023-07-27T11:10:11.169Z,98826.72
2023-07-27T11:12:59.016Z,98821.28
2023-07-27T11:15:33.086Z,98834.56
2023-07-27T11:18:01.437Z,98831.44
2023-07-27T11:20:32.719Z,98820.38
2023-07-27T11:23:01.362Z,98823.22
2023-07-27T11:25:36.424Z,98827.28
2023-07-27T11:28:06.599Z,98832.16
2023-07-27T11:30:38.198Z,98839.47
2023-07-27T11:33:07.696Z,98819.69
2023-07-27T11:35:46.598Z,98830.81
2023-07-27T11:38:14.644Z,98831.69
2023-07-27T11:40:47.652Z,98832.81
2023-07-27T11:43:15.406Z,98836.31
2023-07-27T11:45:46.431Z,98834.94
2023-07-27T11:48:17.865Z,98820.19
2023-07-27T11:50:45.681Z,98830.13
2023-07-27T11:53:19.827Z,98828.63
2023-07-27T11:55:58.629Z,98833.91
2023-07-27T11:58:31.392Z,98820.41
2023-07-27T12:00:59.233Z,98834.69
2023-07-27T12:03:32.555Z,98833.44
2023-07-27T12:06:04.342Z,98836.78
2023-07-27T12:13:59.460Z,98831.81
2023-07-27T12:17:01.194Z,98837.94
2023-07-27T12:21:48.670Z,98842.50
2023-07-27T12:34:28.374Z,98845.78
2023-07-27T12:39:29.534Z,98850.28
2023-07-27T12:44:28.693Z,98864.25
2023-07-27T12:46:56.287Z,98851.94
2023-07-27T12:49:25.413Z,98851.63
2023-07-27T12:51:53.857Z,98859.28
2023-07-27T12:54:22.686Z,98863.22
2023-07-27T12:56:51.290Z,98844.59
2023-07-27T12:59:20.177Z,98868.03
2023-07-27T13:01:48.953Z,98857.34
2023-07-27T13:04:18.072Z,98856.00
2023-07-27T13:06:47.615Z,98866.22
2023-07-27T13:09:17.188Z,98863.94
2023-07-27T13:11:46.220Z,98852.38
2023-07-27T13:14:14.716Z,98857.16
2023-07-27T13:16:43.509Z,98858.38
2023-07-27T13:19:12.146Z,98866.22
2023-07-27T13:21:41.554Z,98869.19
2023-07-27T13:24:09.968Z,98868.91
2023-07-27T13:26:41.323Z,98861.88
2023-07-27T13:29:10.436Z,98880.66
2023-07-27T13:31:39.224Z,98876.75
2023-07-27T13:34:09.118Z,98875.38
2023-07-27T13:36:39.601Z,98869.81
2023-07-27T13:39:09.698Z,98876.41
2023-07-27T13:41:38.163Z,98876.72
2023-07-27T13:44:06.904Z,98883.47
2023-07-27T13:46:35.669Z,98882.41
2023-07-27T13:49:04.295Z,98873.53
2023-07-27T13:51:33.250Z,98890.72
2023-07-27T13:54:03.268Z,98886.91
2023-07-27T13:56:32.478Z,98882.44
2023-07-27T13:59:01.407Z,98884.34
2023-07-27T14:01:33.235Z,98879.72
2023-07-27T14:04:02.264Z,98881.66
2023-07-27T14:06:30.957Z,98886.06
2023-07-27T14:09:00.465Z,98876.84
2023-07-27T14:11:31.019Z,98885.41
2023-07-27T14:13:59.531Z,98889.72
2023-07-27T14:16:28.775Z,98891.00
2023-07-27T14:18:57.216Z,98893.41
2023-07-27T14:21:26.905Z,98904.41
2023-07-27T14:23:55.407Z,98913.47
2023-07-27T14:26:25.715Z,98909.69
2023-07-27T14:28:54.212Z,98897.00
2023-07-27T14:31:22.775Z,98905.69
2023-07-27T14:33:55.601Z,98909.63
2023-07-27T14:36:24.844Z,98911.59
2023-07-27T14:41:28.094Z,98918.03
2023-07-27T14:43:57.196Z,98923.84
2023-07-27T14:46:25.199Z,98924.72
2023-07-27T14:48:53.472Z,98919.00
2023-07-27T14:51:21.682Z,98927.91
2023-07-27T14:53:51.777Z,98928.34
2023-07-27T14:56:25.586Z,98929.28
2023-07-27T14:58:56.462Z,98928.00
2023-07-27T15:01:50.506Z,98926.75
2023-07-27T15:06:55.054Z,98931.81
2023-07-27T15:09:26.676Z,98933.47
2023-07-27T15:11:56.874Z,98926.28
2023-07-27T15:14:26.314Z,98929.53
2023-07-27T15:16:54.212Z,98934.38
2023-07-27T15:19:21.983Z,98948.84
2023-07-27T15:21:52.611Z,98938.63
2023-07-27T15:24:25.541Z,98938.88
2023-07-27T15:26:54.698Z,98954.69
2023-07-27T15:29:25.358Z,98947.75
2023-07-27T15:31:54.555Z,98941.22
2023-07-27T15:34:22.653Z,98946.41
2023-07-27T15:36:50.654Z,98940.28
2023-07-27T15:39:19.614Z,98951.81
2023-07-27T15:41:47.546Z,98946.81
2023-07-27T15:44:17.767Z,98957.25
2023-07-27T15:46:45.424Z,98966.41
2023-07-27T15:49:13.159Z,98975.22
2023-07-27T15:51:40.710Z,98976.22
2023-07-27T15:54:08.430Z,98975.22
2023-07-27T15:56:37.179Z,98978.16
2023-07-27T15:59:06.690Z,98988.22
2023-07-27T16:01:35.579Z,98980.84
2023-07-27T16:04:03.946Z,98992.84
2023-07-27T16:06:33.470Z,98994.19
2023-07-27T16:09:06.176Z,98995.09
2023-07-27T16:11:34.402Z,99001.25
2023-07-27T16:14:03.930Z,99005.97
2023-07-27T16:16:32.956Z,98998.47
2023-07-27T16:19:01.100Z,99004.03
2023-07-27T16:21:29.147Z,99016.44
2023-07-27T16:23:57.276Z,99023.66
2023-07-27T16:26:26.916Z,99033.47
2023-07-27T16:28:54.942Z,99043.16
2023-07-27T16:31:23.267Z,99047.25
2023-07-27T16:33:51.037Z,99061.66
2023-07-27T16:36:18.888Z,99065.09
2023-07-27T16:38:47.576Z,99080.84
2023-07-27T16:41:16.463Z,99077.31
2023-07-27T16:43:45.403Z,99084.44
2023-07-27T16:46:13.402Z,99090.91
2023-07-27T16:48:44.558Z,99096.19
2023-07-27T16:51:12.142Z,99099.13
2023-07-27T16:53:40.408Z,99104.75
2023-07-27T16:56:13.871Z,99100.72
2023-07-27T16:58:41.792Z,99113.94
2023-07-27T17:01:22.380Z,99112.50
2023-07-27T17:03:52.043Z,99114.38
2023-07-27T17:06:20.923Z,99119.34
2023-07-27T17:08:50.230Z,99123.28
2023-07-27T17:11:18.782Z,99117.69
2023-07-27T17:13:47.815Z,99127.63
2023-07-27T17:16:18.969Z,99128.13
2023-07-27T17:18:50.284Z,99132.00
2023-07-27T17:21:19.074Z,99137.69
2023-07-27T17:23:47.634Z,99140.69
2023-07-27T17:26:17.551Z,99151.50
2023-07-27T17:28:47.296Z,99147.81
2023-07-27T17:31:16.281Z,99147.00
2023-07-27T17:33:47.566Z,99162.91
2023-07-27T17:36:17.180Z,99154.94
2023-07-27T17:38:46.873Z,99159.72
2023-07-27T17:41:18.710Z,99159.06
2023-07-27T17:43:47.488Z,99172.56
2023-07-27T17:46:15.220Z,99168.19
2023-07-27T17:48:45.959Z,99180.84
2023-07-27T17:51:14.568Z,99178.19
2023-07-27T17:53:44.679Z,99180.69
2023-07-27T17:56:13.232Z,99183.84
2023-07-27T17:58:43.230Z,99188.41
2023-07-27T18:01:11.754Z,99191.69
2023-07-27T18:03:45.275Z,99200.47
2023-07-27T18:06:16.911Z,99213.50
2023-07-27T18:08:44.725Z,99212.97
2023-07-27T18:11:16.547Z,99218.69
2023-07-27T18:13:49.829Z,99232.56
2023-07-27T18:16:24.953Z,99239.63
2023-07-27T18:18:54.948Z,99248.25
2023-07-27T18:21:26.437Z,99250.19
2023-07-27T18:23:56.726Z,99266.28
2023-07-27T18:26:28.635Z,99270.25
2023-07-27T18:28:57.547Z,99273.50
2023-07-27T18:31:27.363Z,99284.31
2023-07-27T18:33:56.639Z,99285.03
2023-07-27T18:36:44.449Z,99297.97
2023-07-27T18:39:16.597Z,99293.31
2023-07-27T18:41:46.764Z,99288.31
2023-07-27T18:44:14.633Z,99291.94
2023-07-27T18:47:02.332Z,99293.38
2023-07-27T18:49:31.516Z,99294.16
2023-07-27T18:52:02.868Z,99299.19
2023-07-27T18:54:33.975Z,99299.91
2023-07-27T18:57:21.792Z,99302.25
2023-07-27T18:59:54.542Z,99310.72
2023-07-27T19:02:23.289Z,99311.44
2023-07-27T19:04:53.015Z,99319.84
2023-07-27T19:07:26.800Z,99324.84
2023-07-27T19:09:57.181Z,99318.47
2023-07-27T19:12:25.122Z,99323.78
2023-07-27T19:14:54.376Z,99329.56
2023-07-27T19:17:23.956Z,99331.44
2023-07-27T19:19:52.664Z,99340.97
2023-07-27T19:22:21.586Z,99341.84
2023-07-27T19:24:50.664Z,99341.44
2023-07-27T19:27:20.284Z,99339.25
2023-07-27T19:29:48.513Z,99333.91
2023-07-27T19:32:16.259Z,99335.09
2023-07-27T19:34:46.837Z,99330.91
2023-07-27T19:37:15.204Z,99329.00
2023-07-27T19:39:42.841Z,99327.09
2023-07-27T19:42:12.906Z,99327.13
2023-07-27T19:44:41.120Z,99333.25
2023-07-27T19:47:12.678Z,99334.78
2023-07-27T19:49:54.125Z,99340.91
2023-07-27T19:52:30.703Z,99345.09
2023-07-27T19:54:58.855Z,99350.50
2023-07-27T19:57:27.584Z,99363.47
2023-07-27T19:59:57.814Z,99366.13
2023-07-27T20:02:30.826Z,99374.50
2023-07-27T20:04:59.102Z,99373.41
2023-07-27T20:07:26.852Z,99366.19
2023-07-27T20:09:54.421Z,99368.09
2023-07-27T20:12:22.164Z,99379.53
2023-07-27T20:14:54.171Z,99378.00
2023-07-27T20:17:21.869Z,99378.78
2023-07-27T20:19:49.678Z,99383.00
2023-07-27T20:22:17.385Z,99374.22
2023-07-27T20:24:45.941Z,99373.03
2023-07-27T20:27:13.726Z,99371.16
2023-07-27T20:29:41.225Z,99374.22
2023-07-27T20:32:10.542Z,99372.28
2023-07-27T20:34:38.812Z,99373.44
2023-07-27T20:37:06.577Z,99376.88
2023-07-27T20:39:36.016Z,99385.66
2023-07-27T20:42:05.623Z,99383.38
2023-07-27T20:44:36.042Z,99387.19
2023-07-27T20:47:05.320Z,99378.78
2023-07-27T20:49:32.939Z,99383.34
2023-07-27T20:52:00.688Z,99386.03
2023-07-27T20:54:28.266Z,99386.41
2023-07-27T20:56:56.848Z,99392.88
2023-07-27T20:59:25.226Z,99403.56
2023-07-27T21:01:52.749Z,99402.06
2023-07-27T21:04:20.330Z,99405.13
2023-07-27T21:06:47.805Z,99426.44
2023-07-27T21:09:15.331Z,99421.88
2023-07-27T21:11:42.878Z,99422.22
2023-07-27T21:14:10.436Z,99423.72
2023-07-27T21:16:38.262Z,99417.63
2023-07-27T21:19:06.022Z,99426.03
2023-07-27T21:21:33.527Z,99423.34
2023-07-27T21:24:01.971Z,99425.63
2023-07-27T21:26:29.632Z,99431.75
2023-07-27T21:28:57.172Z,99435.44
2023-07-27T21:31:25.117Z,99444.28
2023-07-27T21:33:52.653Z,99445.06
2023-07-27T21:36:20.365Z,99455.25
2023-07-27T21:38:48.570Z,99452.94
2023-07-27T21:41:16.211Z,99447.81
2023-07-27T21:43:43.716Z,99451.19
2023-07-27T21:46:11.285Z,99454.13
2023-07-27T21:48:40.126Z,99450.63
2023-07-27T21:51:08.956Z,99444.59
2023-07-27T21:53:36.847Z,99448.81
2023-07-27T21:56:04.673Z,99452.03
2023-07-27T21:58:32.202Z,99454.06
2023-07-27T22:00:59.721Z,99453.97
2023-07-27T22:03:27.296Z,99464.50
2023-07-27T22:05:54.931Z,99465.13
2023-07-27T22:08:22.356Z,99472.81
2023-07-27T22:10:49.821Z,99470.66
2023-07-27T22:13:17.407Z,99460.88
2023-07-27T22:15:44.942Z,99469.22
2023-07-27T22:18:12.614Z,99465.34
2023-07-27T22:20:44.955Z,99463.41
2023-07-27T22:23:12.905Z,99474.97
2023-07-27T22:25:44.968Z,99475.31
2023-07-27T22:28:13.698Z,99484.19
2023-07-27T22:30:48.587Z,99482.13
2023-07-27T22:33:17.103Z,99480.91
2023-07-27T22:35:48.844Z,99474.03
2023-07-27T22:38:17.816Z,99473.31
2023-07-27T22:40:58.127Z,99477.88
2023-07-27T22:43:27.099Z,99477.34
2023-07-27T22:45:58.940Z,99474.03
2023-07-27T22:48:26.856Z,99478.38
2023-07-27T22:50:57.014Z,99477.50
2023-07-27T22:53:24.684Z,99470.59
2023-07-27T22:55:52.794Z,99473.94
2023-07-27T22:58:21.766Z,99476.94
2023-07-27T23:00:49.528Z,99474.97
2023-07-27T23:03:17.126Z,99483.31
2023-07-27T23:05:44.681Z,99492.34
2023-07-27T23:08:12.277Z,99489.34
2023-07-27T23:10:40.514Z,99479.81
2023-07-27T23:13:08.136Z,99485.19
2023-07-27T23:15:36.657Z,99479.44
2023-07-27T23:18:05.459Z,99484.25
2023-07-27T23:20:33.102Z,99478.56
2023-07-27T23:23:02.110Z,99476.47
2023-07-27T23:25:29.761Z,99469.97
2023-07-27T23:27:57.294Z,99474.16
2023-07-27T23:30:24.901Z,99470.28
2023-07-27T23:32:52.472Z,99470.69
2023-07-27T23:35:20.182Z,99474.81
2023-07-27T23:37:49.010Z,99483.34
2023-07-27T23:40:17.694Z,99480.22
2023-07-27T23:42:45.274Z,99480.63
2023-07-27T23:45:12.749Z,99490.69
2023-07-27T23:47:40.743Z,99486.47
2023-07-27T23:50:08.797Z,99480.44
2023-07-27T23:52:36.367Z,99483.41
2023-07-27T23:55:04.163Z,99486.81
2023-07-27T23:57:31.760Z,99486.53
2023-07-27T23:59:59.233Z,99489.38
